createdAt,value
2022-11-24T00:01:15.780Z,10.60
2022-11-24T00:03:44.971Z,10.50
2022-11-24T00:06:14.673Z,10.50
2022-11-24T00:08:44.579Z,10.50
2022-11-24T00:11:18.128Z,10.50
2022-11-24T00:13:45.901Z,10.50
2022-11-24T00:16:19.573Z,10.50
2022-11-24T00:18:49.292Z,10.40
2022-11-24T00:21:18.168Z,10.40
2022-11-24T00:23:46.610Z,10.40
2022-11-24T00:26:19.981Z,10.40
2022-11-24T00:28:49.444Z,10.40
2022-11-24T00:31:19.976Z,10.40
2022-11-24T00:33:48.870Z,10.40
2022-11-24T00:36:17.667Z,10.40
2022-11-24T00:38:45.845Z,10.40
2022-11-24T00:41:13.924Z,10.40
2022-11-24T00:43:41.368Z,10.40
2022-11-24T00:46:08.846Z,10.30
2022-11-24T00:48:36.364Z,10.30
2022-11-24T00:51:09.220Z,10.30
2022-11-24T00:53:37.290Z,10.30
2022-11-24T00:56:05.290Z,10.30
2022-11-24T00:58:33.536Z,10.30
2022-11-24T01:01:28.485Z,10.30
2022-11-24T01:03:56.737Z,10.30
2022-11-24T01:06:26.397Z,10.30
2022-11-24T01:08:54.947Z,10.30
2022-11-24T01:11:25.444Z,10.30
2022-11-24T01:13:58.798Z,10.30
2022-11-24T01:16:33.359Z,10.30
2022-11-24T01:19:01.321Z,10.30
2022-11-24T01:21:28.781Z,10.30
2022-11-24T01:23:56.346Z,10.30
2022-11-24T01:26:23.855Z,10.30
2022-11-24T01:28:55.928Z,10.30
2022-11-24T01:31:24.205Z,10.30
2022-11-24T01:33:52.384Z,10.30
2022-11-24T01:36:20.270Z,10.30
2022-11-24T01:38:47.692Z,10.40
2022-11-24T01:41:20.825Z,10.40
2022-11-24T01:43:48.875Z,10.30
2022-11-24T01:46:45.595Z,10.40
2022-11-24T01:49:20.422Z,10.40
2022-11-24T01:52:26.747Z,10.40
2022-11-24T01:55:00.868Z,10.40
2022-11-24T01:57:34.883Z,10.40
2022-11-24T02:00:07.485Z,10.40
2022-11-24T02:02:45.649Z,10.40
2022-11-24T02:05:18.600Z,10.40
2022-11-24T02:07:46.922Z,10.40
2022-11-24T02:10:16.260Z,10.40
2022-11-24T02:12:49.162Z,10.40
2022-11-24T02:15:18.911Z,10.50
2022-11-24T02:17:46.474Z,10.50
2022-11-24T02:20:14.824Z,10.50
2022-11-24T02:22:57.009Z,10.50
2022-11-24T02:25:43.057Z,10.50
2022-11-24T02:28:14.643Z,10.50
2022-11-24T02:30:42.107Z,10.60
2022-11-24T02:33:11.178Z,10.60
2022-11-24T02:35:38.853Z,10.60
2022-11-24T02:38:06.505Z,10.60
2022-11-24T02:40:34.131Z,10.60
2022-11-24T02:43:08.113Z,10.70
2022-11-24T02:45:35.671Z,10.70
2022-11-24T02:48:03.071Z,10.70
2022-11-24T02:50:30.512Z,10.80
2022-11-24T02:52:57.906Z,10.70
2022-11-24T02:55:25.696Z,10.70
2022-11-24T02:57:53.229Z,10.80
2022-11-24T03:00:20.952Z,10.70
2022-11-24T03:02:48.530Z,10.80
2022-11-24T03:05:16.154Z,10.70
2022-11-24T03:07:43.657Z,10.70
2022-11-24T03:10:11.524Z,10.70
2022-11-24T03:12:39.021Z,10.70
2022-11-24T03:15:07.337Z,10.70
2022-11-24T03:17:34.677Z,10.60
2022-11-24T03:20:04.958Z,10.60
2022-11-24T03:22:34.771Z,10.60
2022-11-24T03:25:02.343Z,10.60
2022-11-24T03:27:31.571Z,10.60
2022-11-24T03:29:59.008Z,10.50
2022-11-24T03:32:26.367Z,10.50
2022-11-24T03:34:53.840Z,10.50
2022-11-24T03:37:21.306Z,10.50
2022-11-24T03:39:49.450Z,10.50
2022-11-24T03:42:17.012Z,10.40
2022-11-24T03:44:44.412Z,10.40
2022-11-24T03:47:12.730Z,10.40
2022-11-24T03:49:41.658Z,10.40
2022-11-24T03:52:09.597Z,10.40
2022-11-24T03:54:37.133Z,10.40
2022-11-24T03:57:04.667Z,10.40
2022-11-24T03:59:32.024Z,10.30
2022-11-24T04:01:59.506Z,10.30
2022-11-24T04:04:27.196Z,10.30
2022-11-24T04:06:54.779Z,10.40
2022-11-24T04:09:22.397Z,10.30
2022-11-24T04:12:08.177Z,10.40
2022-11-24T04:14:36.212Z,10.40
2022-11-24T04:17:05.007Z,10.40
2022-11-24T04:19:32.535Z,10.40
2022-11-24T04:22:00.112Z,10.40
2022-11-24T04:24:27.738Z,10.40
2022-11-24T04:26:55.014Z,10.40
2022-11-24T04:29:22.394Z,10.40
2022-11-24T04:31:49.767Z,10.40
2022-11-24T04:34:17.112Z,10.40
2022-11-24T04:36:44.403Z,10.40
2022-11-24T04:39:24.893Z,10.30
2022-11-24T04:41:53.697Z,10.30
2022-11-24T04:44:21.020Z,10.30
2022-11-24T04:46:48.717Z,10.30
2022-11-24T04:49:16.031Z,10.30
2022-11-24T04:51:43.459Z,10.30
2022-11-24T04:54:12.974Z,10.30
2022-11-24T04:56:41.988Z,10.30
2022-11-24T04:59:16.403Z,10.30
2022-11-24T05:01:45.264Z,10.30
2022-11-24T05:04:15.274Z,10.30
2022-11-24T05:06:43.297Z,10.30
2022-11-24T05:09:16.096Z,10.30
2022-11-24T05:11:44.111Z,10.30
2022-11-24T05:14:11.655Z,10.30
2022-11-24T05:16:39.016Z,10.30
2022-11-24T05:19:06.390Z,10.30
2022-11-24T05:21:33.706Z,10.30
2022-11-24T05:24:01.149Z,10.20
2022-11-24T05:26:28.436Z,10.30
2022-11-24T05:28:55.865Z,10.20
2022-11-24T05:31:23.405Z,10.20
2022-11-24T05:33:51.032Z,10.20
2022-11-24T05:36:36.870Z,10.20
2022-11-24T05:39:04.353Z,10.20
2022-11-24T05:41:31.647Z,10.20
2022-11-24T05:43:58.955Z,10.20
2022-11-24T05:46:27.017Z,10.10
2022-11-24T05:48:54.326Z,10.10
2022-11-24T05:51:21.686Z,10.10
2022-11-24T05:53:49.116Z,10.10
2022-11-24T05:56:16.479Z,10.10
2022-11-24T05:58:44.688Z,10.00
2022-11-24T06:01:12.097Z,10.00
2022-11-24T06:03:39.581Z,10.00
2022-11-24T06:06:07.176Z,10.00
2022-11-24T06:08:34.655Z,10.00
2022-11-24T06:11:17.419Z,9.90
2022-11-24T06:13:46.370Z,9.90
2022-11-24T06:16:14.411Z,9.90
2022-11-24T06:18:41.876Z,9.90
2022-11-24T06:21:11.115Z,9.80
2022-11-24T06:23:39.630Z,9.80
2022-11-24T06:26:07.341Z,9.80
2022-11-24T06:28:34.725Z,9.80
2022-11-24T06:31:03.812Z,9.80
2022-11-24T06:33:35.409Z,9.80
2022-11-24T06:36:04.983Z,9.90
2022-11-24T06:38:32.885Z,9.90
2022-11-24T06:41:10.410Z,9.90
2022-11-24T06:43:37.895Z,9.90
2022-11-24T06:46:05.950Z,9.90
2022-11-24T06:48:33.449Z,10.00
2022-11-24T06:51:02.205Z,10.00
2022-11-24T06:53:37.963Z,10.00
2022-11-24T06:56:10.733Z,10.00
2022-11-24T06:58:42.808Z,10.10
2022-11-24T07:01:14.557Z,10.10
2022-11-24T07:03:42.225Z,10.10
2022-11-24T07:06:09.602Z,10.10
2022-11-24T07:08:36.964Z,10.10
2022-11-24T07:11:06.389Z,10.10
2022-11-24T07:13:34.017Z,10.10
2022-11-24T07:16:10.535Z,10.10
2022-11-24T07:18:37.856Z,10.10
2022-11-24T07:21:05.796Z,10.10
2022-11-24T07:23:33.616Z,10.10
2022-11-24T07:26:06.965Z,10.10
2022-11-24T07:28:36.807Z,10.10
2022-11-24T07:31:10.714Z,10.10
2022-11-24T07:33:38.545Z,10.10
2022-11-24T07:36:07.551Z,10.00
2022-11-24T07:38:36.184Z,10.00
2022-11-24T07:41:09.047Z,10.00
2022-11-24T07:43:37.957Z,10.00
2022-11-24T07:46:07.532Z,10.00
2022-11-24T07:48:35.173Z,10.00
2022-11-24T07:51:06.137Z,10.00
2022-11-24T07:53:34.277Z,10.00
2022-11-24T07:56:05.730Z,10.00
2022-11-24T07:58:36.348Z,10.00
2022-11-24T08:01:15.328Z,10.00
2022-11-24T08:03:43.691Z,10.00
2022-11-24T08:06:32.580Z,10.00
2022-11-24T08:08:59.518Z,10.00
2022-11-24T08:11:27.469Z,10.10
2022-11-24T08:13:54.716Z,10.10
2022-11-24T08:16:22.319Z,10.10
2022-11-24T08:18:55.007Z,10.10
2022-11-24T08:21:25.681Z,10.10
2022-11-24T08:23:56.997Z,10.10
2022-11-24T08:26:25.505Z,10.20
2022-11-24T08:28:57.867Z,10.20
2022-11-24T08:31:34.037Z,10.20
2022-11-24T08:34:03.735Z,10.20
2022-11-24T08:36:32.127Z,10.30
2022-11-24T08:39:00.764Z,10.30
2022-11-24T08:41:29.039Z,10.30
2022-11-24T08:43:56.893Z,10.40
2022-11-24T08:46:24.434Z,10.40
2022-11-24T08:48:54.073Z,10.40
2022-11-24T08:51:24.344Z,10.50
2022-11-24T08:53:56.029Z,10.50
2022-11-24T08:56:23.510Z,10.50
2022-11-24T08:58:51.137Z,10.60
2022-11-24T09:01:19.218Z,10.60
2022-11-24T09:03:51.050Z,10.60
2022-11-24T09:06:25.225Z,10.60
2022-11-24T09:08:54.656Z,10.60
2022-11-24T09:11:22.807Z,10.60
2022-11-24T09:13:50.430Z,10.60
2022-11-24T09:16:20.973Z,10.60
2022-11-24T09:18:54.258Z,10.60
2022-11-24T09:21:24.204Z,10.60
2022-11-24T09:23:53.408Z,10.60
2022-11-24T09:26:23.294Z,10.70
2022-11-24T09:28:54.771Z,10.70
2022-11-24T09:31:25.081Z,10.80
2022-11-24T09:33:53.653Z,10.80
2022-11-24T09:36:21.921Z,10.80
2022-11-24T09:38:49.707Z,10.90
2022-11-24T09:41:32.678Z,11.00
2022-11-24T09:44:39.106Z,11.00
2022-11-24T09:47:06.475Z,11.10
2022-11-24T09:49:56.016Z,11.10
2022-11-24T09:52:49.091Z,11.20
2022-11-24T09:55:22.549Z,11.30
2022-11-24T09:57:59.902Z,11.40
2022-11-24T10:00:27.226Z,11.50
2022-11-24T10:02:54.623Z,11.60
2022-11-24T10:05:26.121Z,11.60
2022-11-24T10:08:09.620Z,11.70
2022-11-24T10:10:55.010Z,11.80
2022-11-24T10:13:50.526Z,11.80
2022-11-24T10:16:17.895Z,11.90
2022-11-24T10:18:48.022Z,11.90
2022-11-24T10:21:15.346Z,11.90
2022-11-24T10:23:45.432Z,11.90
2022-11-24T10:26:37.355Z,12.00
2022-11-24T10:29:14.023Z,12.00
2022-11-24T10:31:44.916Z,12.00
2022-11-24T10:34:18.268Z,12.10
2022-11-24T10:37:16.404Z,12.10
2022-11-24T10:40:40.484Z,12.10
2022-11-24T10:43:10.463Z,12.10
2022-11-24T10:45:39.680Z,12.20
2022-11-24T10:48:17.793Z,12.20
2022-11-24T10:50:45.944Z,12.30
2022-11-24T10:53:26.937Z,12.30
2022-11-24T10:55:57.043Z,12.40
2022-11-24T10:58:34.445Z,12.40
2022-11-24T11:01:14.230Z,12.40
2022-11-24T11:04:00.120Z,12.50
2022-11-24T11:06:28.543Z,12.50
2022-11-24T11:09:22.983Z,12.60
2022-11-24T11:11:54.025Z,12.60
2022-11-24T11:14:34.181Z,12.70
2022-11-24T11:17:02.350Z,12.70
2022-11-24T11:19:56.911Z,12.80
2022-11-24T11:22:33.389Z,12.90
2022-11-24T11:25:07.466Z,12.90
2022-11-24T11:27:34.882Z,13.00
2022-11-24T11:36:11.993Z,13.20
2022-11-24T11:38:40.798Z,13.20
2022-11-24T11:41:18.127Z,13.30
2022-11-24T11:43:47.363Z,13.30
2022-11-24T11:46:17.075Z,13.40
2022-11-24T11:48:47.132Z,13.50
2022-11-24T11:51:39.354Z,13.60
2022-11-24T11:54:25.930Z,13.60
2022-11-24T11:57:31.938Z,13.70
2022-11-24T12:00:11.899Z,13.80
2022-11-24T12:02:49.961Z,13.80
2022-11-24T12:05:31.363Z,13.90
2022-11-24T12:08:21.119Z,13.90
2022-11-24T12:11:05.703Z,13.90
2022-11-24T12:14:12.285Z,14.00
2022-11-24T12:16:39.605Z,14.00
2022-11-24T12:19:23.982Z,14.00
2022-11-24T12:22:13.071Z,14.10
2022-11-24T12:24:52.473Z,14.00
2022-11-24T12:27:47.577Z,14.00
2022-11-24T12:30:18.292Z,14.00
2022-11-24T12:33:05.405Z,14.10
2022-11-24T12:35:49.141Z,14.10
2022-11-24T12:38:36.648Z,14.20
2022-11-24T12:41:43.657Z,14.20
2022-11-24T12:44:44.724Z,14.20
2022-11-24T12:47:27.479Z,14.20
2022-11-24T12:50:12.963Z,14.20
2022-11-24T12:52:57.220Z,14.20
2022-11-24T12:55:28.069Z,14.30
2022-11-24T12:58:17.266Z,14.20
2022-11-24T13:01:02.627Z,14.30
2022-11-24T13:03:36.544Z,14.30
2022-11-24T13:06:19.423Z,14.30
2022-11-24T13:08:46.948Z,14.30
2022-11-24T13:11:23.335Z,14.30
2022-11-24T13:14:02.874Z,14.30
2022-11-24T13:16:48.521Z,14.30
2022-11-24T13:19:21.798Z,14.30
2022-11-24T13:21:59.937Z,14.30
2022-11-24T13:24:30.970Z,14.40
2022-11-24T13:27:17.321Z,14.40
2022-11-24T13:29:49.882Z,14.40
2022-11-24T13:32:21.365Z,14.40
2022-11-24T13:34:50.084Z,14.40
2022-11-24T13:37:26.454Z,14.50
2022-11-24T13:40:01.300Z,14.50
2022-11-24T13:42:41.835Z,14.50
2022-11-24T13:45:41.064Z,14.50
2022-11-24T13:48:21.628Z,14.50
2022-11-24T13:50:55.163Z,14.50
2022-11-24T13:53:27.018Z,14.50
2022-11-24T13:56:24.656Z,14.60
2022-11-24T13:59:01.578Z,14.60
2022-11-24T14:01:33.608Z,14.60
2022-11-24T14:04:43.200Z,14.60
2022-11-24T14:07:14.651Z,14.60
2022-11-24T14:09:48.095Z,14.60
2022-11-24T14:12:15.732Z,14.60
2022-11-24T14:14:44.727Z,14.60
2022-11-24T14:17:24.217Z,14.60
2022-11-24T14:19:54.093Z,14.60
2022-11-24T14:22:26.924Z,14.60
2022-11-24T14:24:59.604Z,14.60
2022-11-24T14:27:38.202Z,14.60
2022-11-24T14:30:13.603Z,14.50
2022-11-24T14:32:42.572Z,14.50
2022-11-24T14:35:33.326Z,14.40
2022-11-24T14:38:03.252Z,14.40
2022-11-24T14:40:46.175Z,14.30
2022-11-24T14:43:32.484Z,14.30
2022-11-24T14:46:09.578Z,14.20
2022-11-24T14:48:47.217Z,14.10
2022-11-24T14:51:24.121Z,14.10
2022-11-24T14:53:54.031Z,14.00
2022-11-24T14:56:29.873Z,13.90
2022-11-24T14:58:59.050Z,13.80
2022-11-24T15:01:32.790Z,13.70
2022-11-24T15:04:26.668Z,13.70
2022-11-24T15:07:18.978Z,13.60
2022-11-24T15:09:52.756Z,13.50
2022-11-24T15:12:29.122Z,13.40
2022-11-24T15:15:20.813Z,13.30
2022-11-24T15:17:55.123Z,13.30
2022-11-24T15:20:25.262Z,13.20
2022-11-24T15:23:12.558Z,13.20
2022-11-24T15:25:40.020Z,13.10
2022-11-24T15:28:09.076Z,13.00
2022-11-24T15:30:37.663Z,12.90
2022-11-24T15:33:17.001Z,12.90
2022-11-24T15:35:45.386Z,12.80
2022-11-24T15:38:14.604Z,12.70
2022-11-24T15:40:45.573Z,12.70
2022-11-24T15:43:31.416Z,12.60
2022-11-24T15:46:00.190Z,12.60
2022-11-24T15:48:28.208Z,12.50
2022-11-24T15:50:57.615Z,12.50
2022-11-24T15:53:32.975Z,12.40
2022-11-24T15:56:02.582Z,12.40
2022-11-24T15:58:29.911Z,12.30
2022-11-24T16:00:57.403Z,12.30
2022-11-24T16:03:46.409Z,12.20
2022-11-24T16:06:23.709Z,12.20
2022-11-24T16:08:53.222Z,12.10
2022-11-24T16:11:20.974Z,12.10
2022-11-24T16:13:52.329Z,12.00
2022-11-24T16:16:21.640Z,11.90
2022-11-24T16:18:49.082Z,11.90
2022-11-24T16:21:16.361Z,11.90
2022-11-24T16:23:43.839Z,11.80
2022-11-24T16:26:11.214Z,11.80
2022-11-24T16:28:38.557Z,11.80
2022-11-24T16:31:06.161Z,11.80
2022-11-24T16:33:33.671Z,11.70
2022-11-24T16:36:00.918Z,11.70
2022-11-24T16:38:28.214Z,11.70
2022-11-24T16:40:59.380Z,11.60
2022-11-24T16:43:29.340Z,11.60
2022-11-24T16:46:20.548Z,11.50
2022-11-24T16:48:50.527Z,11.40
2022-11-24T16:51:19.854Z,11.40
2022-11-24T16:53:47.945Z,11.30
2022-11-24T16:56:16.713Z,11.30
2022-11-24T16:58:43.962Z,11.20
2022-11-24T17:01:13.700Z,11.10
2022-11-24T17:03:41.494Z,11.10
2022-11-24T17:06:15.939Z,11.00
2022-11-24T17:08:45.077Z,10.90
2022-11-24T17:11:18.519Z,10.90
2022-11-24T17:13:47.194Z,10.80
2022-11-24T17:16:16.814Z,10.80
2022-11-24T17:18:44.885Z,10.70
2022-11-24T17:21:15.042Z,10.70
2022-11-24T17:23:43.171Z,10.60
2022-11-24T17:26:18.181Z,10.60
2022-11-24T17:28:45.778Z,10.60
2022-11-24T17:31:18.155Z,10.50
2022-11-24T17:33:45.830Z,10.50
2022-11-24T17:36:13.188Z,10.40
2022-11-24T17:38:40.566Z,10.40
2022-11-24T17:41:08.779Z,10.40
2022-11-24T17:43:36.259Z,10.40
2022-11-24T17:46:04.892Z,10.40
2022-11-24T17:48:33.106Z,10.30
2022-11-24T17:51:03.462Z,10.30
2022-11-24T17:53:31.570Z,10.30
2022-11-24T17:56:00.552Z,10.20
2022-11-24T17:58:29.066Z,10.20
2022-11-24T18:00:58.233Z,10.20
2022-11-24T18:03:28.946Z,10.20
2022-11-24T18:05:56.436Z,10.10
2022-11-24T18:08:24.305Z,10.10
2022-11-24T18:10:51.527Z,10.10
2022-11-24T18:13:48.481Z,10.10
2022-11-24T18:16:08.996Z,10.00
2022-11-24T18:18:40.215Z,10.00
2022-11-24T18:21:12.785Z,10.00
2022-11-24T18:23:40.748Z,10.00
2022-11-24T18:26:08.423Z,10.00
2022-11-24T18:28:35.994Z,10.00
2022-11-24T18:31:06.650Z,10.00
2022-11-24T18:33:37.886Z,10.00
2022-11-24T18:36:07.136Z,9.90
2022-11-24T18:38:39.042Z,9.90
2022-11-24T18:41:07.502Z,9.90
2022-11-24T18:43:37.906Z,9.90
2022-11-24T18:46:13.845Z,9.90
2022-11-24T18:48:42.380Z,9.90
2022-11-24T18:51:14.924Z,10.00
2022-11-24T18:53:43.724Z,10.00
2022-11-24T18:56:17.424Z,10.10
2022-11-24T18:58:45.283Z,10.10
2022-11-24T19:01:18.534Z,10.10
2022-11-24T19:03:49.240Z,10.10
2022-11-24T19:06:36.760Z,10.10
2022-11-24T19:09:15.799Z,10.10
2022-11-24T19:11:44.741Z,10.20
2022-11-24T19:14:15.093Z,10.20
2022-11-24T19:16:43.303Z,10.20
2022-11-24T19:19:12.515Z,10.20
2022-11-24T19:21:40.625Z,10.20
2022-11-24T19:24:16.029Z,10.20
2022-11-24T19:26:43.540Z,10.30
2022-11-24T19:29:11.100Z,10.30
2022-11-24T19:31:39.901Z,10.30
2022-11-24T19:34:08.463Z,10.30
2022-11-24T19:36:37.569Z,10.30
2022-11-24T19:39:05.452Z,10.30
2022-11-24T19:41:33.727Z,10.30
2022-11-24T19:44:01.252Z,10.30
2022-11-24T19:46:29.982Z,10.30
2022-11-24T19:49:00.953Z,10.20
2022-11-24T19:51:31.843Z,10.20
2022-11-24T19:54:00.120Z,10.10
2022-11-24T19:56:31.497Z,10.10
2022-11-24T19:58:58.857Z,10.10
2022-11-24T20:01:28.640Z,10.10
2022-11-24T20:04:01.411Z,10.10
2022-11-24T20:06:29.665Z,10.10
2022-11-24T20:08:58.982Z,10.10
2022-11-24T20:11:27.606Z,10.10
2022-11-24T20:13:55.376Z,10.10
2022-11-24T20:16:29.862Z,10.10
2022-11-24T20:19:00.445Z,10.10
2022-11-24T20:21:31.658Z,10.10
2022-11-24T20:24:01.925Z,10.20
2022-11-24T20:26:33.551Z,10.20
2022-11-24T20:29:01.240Z,10.20
2022-11-24T20:31:37.336Z,10.20
2022-11-24T20:34:07.309Z,10.20
2022-11-24T20:36:37.032Z,10.20
2022-11-24T20:39:14.530Z,10.20
2022-11-24T20:41:42.471Z,10.20
2022-11-24T20:44:13.873Z,10.20
2022-11-24T20:46:44.234Z,10.20
2022-11-24T20:49:14.609Z,10.20
2022-11-24T20:51:44.323Z,10.20
2022-11-24T20:54:15.689Z,10.20
2022-11-24T20:56:46.722Z,10.10
2022-11-24T20:59:16.193Z,10.10
2022-11-24T21:01:45.633Z,10.10
2022-11-24T21:04:19.203Z,10.00
2022-11-24T21:06:47.025Z,10.00
2022-11-24T21:09:14.482Z,10.00
2022-11-24T21:11:42.355Z,10.00
2022-11-24T21:14:11.041Z,9.90
2022-11-24T21:16:40.719Z,9.90
2022-11-24T21:19:15.293Z,9.90
2022-11-24T21:21:43.097Z,9.90
2022-11-24T21:24:13.700Z,9.80
2022-11-24T21:26:42.201Z,9.80
2022-11-24T21:29:15.604Z,9.80
2022-11-24T21:31:43.237Z,9.80
2022-11-24T21:34:15.351Z,9.80
2022-11-24T21:36:45.231Z,9.80
2022-11-24T21:39:14.116Z,9.80
2022-11-24T21:41:41.905Z,9.80
2022-11-24T21:44:11.953Z,9.80
2022-11-24T21:46:44.929Z,9.80
2022-11-24T21:49:17.000Z,9.80
2022-11-24T21:51:44.336Z,9.80
2022-11-24T21:54:11.790Z,9.80
2022-11-24T21:56:39.191Z,9.70
2022-11-24T21:59:06.641Z,9.70
2022-11-24T22:01:34.057Z,9.70
2022-11-24T22:04:01.571Z,9.70
2022-11-24T22:06:28.881Z,9.70
2022-11-24T22:08:56.273Z,9.70
2022-11-24T22:11:25.675Z,9.70
2022-11-24T22:13:53.941Z,9.70
2022-11-24T22:16:24.003Z,9.70
2022-11-24T22:18:52.252Z,9.70
2022-11-24T22:21:30.070Z,9.60
2022-11-24T22:23:57.886Z,9.60
2022-11-24T22:26:26.286Z,9.60
2022-11-24T22:28:58.169Z,9.60
2022-11-24T22:31:28.023Z,9.60
2022-11-24T22:33:57.060Z,9.60
2022-11-24T22:36:26.656Z,9.60
2022-11-24T22:38:59.240Z,9.60
2022-11-24T22:41:26.706Z,9.60
2022-11-24T22:43:54.276Z,9.60
2022-11-24T22:46:27.780Z,9.50
2022-11-24T22:48:57.728Z,9.50
2022-11-24T22:51:33.762Z,9.50
2022-11-24T22:54:03.749Z,9.50
2022-11-24T22:56:34.771Z,9.50
2022-11-24T22:59:03.184Z,9.50
2022-11-24T23:01:31.977Z,9.50
2022-11-24T23:03:59.718Z,9.50
2022-11-24T23:06:30.035Z,9.50
2022-11-24T23:08:59.004Z,9.50
2022-11-24T23:11:34.926Z,9.50
2022-11-24T23:14:06.894Z,9.60
2022-11-24T23:16:34.470Z,9.60
2022-11-24T23:19:01.813Z,9.60
2022-11-24T23:21:31.890Z,9.70
2022-11-24T23:24:01.407Z,9.70
2022-11-24T23:26:31.446Z,9.70
2022-11-24T23:28:58.867Z,9.80
2022-11-24T23:31:30.542Z,9.80
2022-11-24T23:33:59.889Z,9.90
2022-11-24T23:36:28.456Z,9.90
2022-11-24T23:38:56.065Z,10.00
2022-11-24T23:41:25.880Z,10.00
2022-11-24T23:43:53.538Z,10.10
2022-11-24T23:46:23.522Z,10.10
2022-11-24T23:48:52.545Z,10.10
2022-11-24T23:51:22.481Z,10.20
2022-11-24T23:53:50.565Z,10.20
2022-11-24T23:56:20.726Z,10.20
2022-11-24T23:58:48.124Z,10.30
